Time;durP1;ratioP1;P1;durP2;ratioP2;P2;SDS_P1;SDS_P2;PMS_P1;PMS_P2;Temp;Humidity;BMP_temperature;BMP_pressure;BME280_temperature;BME280_humidity;BME280_pressure;Samples;Min_cycle;Max_cycle;Signal;HPM_P1;HPM_P2
2022/07/15 00:00:33;;;;;;;2.90;1.15;;;;;;;17.03;61.05;101437.09;4932114;28;20611;-66
2022/07/15 00:02:59;;;;;;;3.35;1.10;;;;;;;16.99;61.15;101441.09;4984667;28;20029;-67
2022/07/15 00:05:24;;;;;;;2.97;1.30;;;;;;;16.92;61.26;101435.56;4968834;28;20006;-65
2022/07/15 00:07:49;;;;;;;2.75;1.10;;;;;;;17.02;61.20;101438.13;4982776;28;20357;-66
2022/07/15 00:10:15;;;;;;;1.83;1.35;;;;;;;17.03;61.39;101439.78;4965421;28;20036;-67
2022/07/15 00:12:50;;;;;;;4.22;1.20;;;;;;;17.02;61.38;101443.47;4955463;28;20096;-68
2022/07/15 00:15:16;;;;;;;3.15;0.93;;;;;;;16.97;61.45;101440.44;4949299;28;20014;-66
2022/07/15 00:17:42;;;;;;;2.15;1.00;;;;;;;16.96;61.40;101438.75;4976872;28;21009;-67
2022/07/15 00:20:09;;;;;;;2.63;1.10;;;;;;;16.92;61.52;101438.25;4933837;28;20002;-67
2022/07/15 00:22:34;;;;;;;1.48;1.00;;;;;;;17.04;61.42;101437.94;4971204;28;20364;-68
2022/07/15 00:25:00;;;;;;;2.58;1.30;;;;;;;16.93;61.70;101436.41;4950721;28;20106;-64
2022/07/15 00:27:25;;;;;;;4.75;1.40;;;;;;;16.84;62.21;101440.84;4999453;28;20014;-66
2022/07/15 00:29:51;;;;;;;1.10;1.00;;;;;;;16.74;62.22;101442.81;4998348;28;20013;-67
2022/07/15 00:32:17;;;;;;;1.35;1.25;;;;;;;16.70;62.46;101434.28;5003208;28;20211;-69
2022/07/15 00:34:42;;;;;;;1.30;1.20;;;;;;;16.73;62.85;101438.47;4987434;28;20817;-67
2022/07/15 00:37:08;;;;;;;2.38;1.20;;;;;;;16.66;62.94;101432.91;4987051;28;20020;-67
2022/07/15 00:39:33;;;;;;;2.75;1.70;;;;;;;16.65;63.34;101441.94;4969526;28;20429;-67
2022/07/15 00:41:59;;;;;;;2.38;1.40;;;;;;;16.63;63.42;101435.91;4983028;28;20032;-66
2022/07/15 00:44:25;;;;;;;2.15;1.50;;;;;;;16.56;63.50;101437.56;4971374;28;20476;-66
2022/07/15 00:46:51;;;;;;;2.55;1.48;;;;;;;16.56;63.69;101433.03;4948828;28;20025;-65
2022/07/15 00:49:17;;;;;;;2.15;1.27;;;;;;;16.49;64.06;101438.16;4980725;28;20021;-67
2022/07/15 00:51:52;;;;;;;1.83;1.35;;;;;;;16.49;64.17;101430.16;4945779;28;20024;-66
2022/07/15 00:54:23;;;;;;;5.32;1.30;;;;;;;16.51;64.23;101438.00;4969426;28;20037;-66
2022/07/15 00:56:49;;;;;;;1.70;1.33;;;;;;;16.50;64.55;101439.03;4969351;28;20341;-66
2022/07/15 00:59:15;;;;;;;5.25;1.45;;;;;;;16.51;64.27;101432.66;4988871;28;20010;-66
2022/07/15 01:01:41;;;;;;;5.63;1.30;;;;;;;16.47;64.52;101439.34;4958738;28;20342;-66
2022/07/15 01:04:07;;;;;;;2.97;1.40;;;;;;;16.46;64.35;101435.00;4984763;28;20013;-67
2022/07/15 01:06:32;;;;;;;3.47;1.50;;;;;;;16.64;64.38;101432.25;4953374;28;20087;-67
2022/07/15 01:08:58;;;;;;;3.25;1.52;;;;;;;16.58;64.18;101438.22;4988727;28;20321;-67
2022/07/15 01:11:23;;;;;;;2.65;1.40;;;;;;;16.36;64.88;101443.13;4949681;28;20479;-65
2022/07/15 01:13:49;;;;;;;4.45;1.70;;;;;;;16.31;65.00;101438.25;4960125;28;20130;-67
2022/07/15 01:16:14;;;;;;;5.60;1.48;;;;;;;16.21;65.48;101450.03;4953913;28;20010;-65
2022/07/15 01:18:40;;;;;;;3.55;1.30;;;;;;;16.28;65.39;101451.06;4986902;28;20979;-67
2022/07/15 01:21:05;;;;;;;4.15;1.75;;;;;;;16.13;66.05;101450.78;4967087;28;20340;-67
2022/07/15 01:23:31;;;;;;;2.50;1.63;;;;;;;16.01;66.06;101444.88;4979045;28;20014;-66
2022/07/15 01:25:56;;;;;;;2.13;1.33;;;;;;;16.00;66.26;101447.72;4987593;28;20014;-66
2022/07/15 01:28:22;;;;;;;2.05;1.35;;;;;;;15.90;66.82;101456.63;4982078;28;20108;-67
2022/07/15 01:30:47;;;;;;;2.65;1.40;;;;;;;15.81;67.19;101454.91;4969225;28;20915;-67
2022/07/15 01:33:13;;;;;;;3.97;1.55;;;;;;;15.89;67.17;101459.47;4983385;28;20029;-66
2022/07/15 01:35:38;;;;;;;2.30;1.40;;;;;;;15.83;67.44;101457.41;4984738;28;20671;-67
2022/07/15 01:38:04;;;;;;;1.92;1.40;;;;;;;15.70;67.84;101455.13;4965965;28;20030;-67
2022/07/15 01:40:29;;;;;;;3.13;1.60;;;;;;;15.65;68.14;101460.88;4986118;28;20208;-67
2022/07/15 01:42:55;;;;;;;3.78;1.50;;;;;;;15.68;68.51;101459.75;4966309;28;20563;-65
2022/07/15 01:45:20;;;;;;;2.53;1.58;;;;;;;15.72;68.05;101453.97;4975392;28;20296;-67
2022/07/15 01:47:47;;;;;;;4.82;1.70;;;;;;;15.73;68.32;101463.63;4965840;28;20371;-64
2022/07/15 01:50:13;;;;;;;3.17;1.70;;;;;;;15.92;67.77;101462.66;4963528;28;20129;-67
2022/07/15 01:52:38;;;;;;;2.30;1.50;;;;;;;15.83;67.74;101460.09;4980530;28;20022;-67
2022/07/15 01:55:05;;;;;;;2.75;1.50;;;;;;;15.72;68.19;101467.31;4949976;28;20083;-67
2022/07/15 01:57:31;;;;;;;5.07;1.63;;;;;;;15.68;68.48;101471.28;4949615;28;20018;-67
2022/07/15 01:59:56;;;;;;;3.10;1.30;;;;;;;15.69;68.68;101464.94;4950540;28;20006;-65
2022/07/15 02:02:22;;;;;;;5.13;1.70;;;;;;;15.79;68.61;101468.41;4948379;28;20010;-67
2022/07/15 02:04:47;;;;;;;2.38;1.70;;;;;;;15.93;67.82;101469.69;4951248;28;20049;-65
2022/07/15 02:07:12;;;;;;;3.78;1.75;;;;;;;15.97;67.23;101473.69;4963965;28;20014;-66
2022/07/15 02:09:38;;;;;;;3.55;1.75;;;;;;;16.02;67.36;101478.59;4987502;28;20749;-67
2022/07/15 02:12:03;;;;;;;4.47;1.55;;;;;;;16.09;67.04;101479.66;4992872;28;20832;-66
2022/07/15 02:14:29;;;;;;;1.95;1.60;;;;;;;16.11;66.93;101480.31;4967926;28;20144;-67
2022/07/15 02:16:55;;;;;;;3.35;2.05;;;;;;;16.24;66.52;101476.41;4983023;28;20029;-67
2022/07/15 02:19:21;;;;;;;3.05;1.50;;;;;;;16.19;66.72;101481.38;4969527;28;20312;-68
2022/07/15 02:21:47;;;;;;;3.97;1.77;;;;;;;16.15;66.62;101475.53;4974460;28;20022;-66
2022/07/15 02:24:13;;;;;;;4.45;1.70;;;;;;;16.26;66.25;101479.78;4968372;28;20037;-67
2022/07/15 02:26:39;;;;;;;3.63;1.98;;;;;;;16.19;65.79;101476.03;4984988;28;20125;-67
2022/07/15 02:29:04;;;;;;;2.78;1.45;;;;;;;16.21;65.48;101484.75;4966788;28;20018;-66
2022/07/15 02:31:30;;;;;;;5.03;1.63;;;;;;;16.21;65.52;101476.75;4986668;28;20916;-67
2022/07/15 02:33:55;;;;;;;4.32;1.50;;;;;;;16.22;64.83;101475.75;4977897;28;20017;-67
2022/07/15 02:36:20;;;;;;;8.05;1.75;;;;;;;16.18;64.39;101472.53;4986346;28;20127;-66
2022/07/15 02:38:46;;;;;;;4.90;1.75;;;;;;;16.32;64.66;101476.47;4985368;28;20361;-65
2022/07/15 02:41:12;;;;;;;5.03;1.65;;;;;;;16.30;64.43;101465.09;4980742;28;20018;-67
2022/07/15 02:43:38;;;;;;;4.78;1.70;;;;;;;16.33;64.58;101475.50;4976269;28;20014;-66
2022/07/15 02:46:03;;;;;;;3.78;1.45;;;;;;;16.36;64.43;101469.84;4960685;28;20014;-66
2022/07/15 02:48:29;;;;;;;3.22;1.60;;;;;;;16.45;64.57;101471.53;4962195;28;20279;-67
2022/07/15 02:50:54;;;;;;;5.22;1.52;;;;;;;16.43;64.13;101470.03;4951074;28;19998;-67
2022/07/15 02:53:21;;;;;;;3.08;1.73;;;;;;;16.42;64.36;101468.38;4931373;28;20633;-67
2022/07/15 02:55:47;;;;;;;3.13;1.50;;;;;;;16.39;64.17;101463.34;4929438;28;20014;-65
2022/07/15 02:58:12;;;;;;;4.13;1.70;;;;;;;16.37;64.16;101474.19;4929049;28;20081;-67
2022/07/15 03:00:38;;;;;;;2.83;1.50;;;;;;;16.41;64.03;101477.38;4947151;28;20112;-65
2022/07/15 03:03:03;;;;;;;3.28;1.40;;;;;;;16.54;63.99;101471.59;4966549;28;20478;-67
2022/07/15 03:05:29;;;;;;;2.70;1.50;;;;;;;16.51;64.19;101477.25;4952626;28;20964;-67
2022/07/15 03:07:54;;;;;;;3.28;1.55;;;;;;;16.38;64.07;101483.03;4961035;28;20017;-66
2022/07/15 03:10:20;;;;;;;3.20;1.42;;;;;;;16.41;64.40;101485.38;4952707;28;20022;-67
2022/07/15 03:12:45;;;;;;;6.70;1.58;;;;;;;16.41;64.07;101485.38;4948784;28;20192;-67
2022/07/15 03:15:11;;;;;;;2.95;1.60;;;;;;;16.41;64.08;101488.91;4951927;28;20486;-67
2022/07/15 03:17:37;;;;;;;3.88;1.67;;;;;;;16.31;64.13;101494.34;4945986;28;20022;-66
2022/07/15 03:20:03;;;;;;;4.38;1.50;;;;;;;16.32;64.32;101484.50;4981204;28;20843;-67
2022/07/15 03:22:29;;;;;;;3.72;1.52;;;;;;;16.32;64.30;101489.84;4979215;28;20136;-66
2022/07/15 03:24:54;;;;;;;3.47;1.30;;;;;;;16.30;64.44;101500.69;4967303;28;20030;-67
2022/07/15 03:27:20;;;;;;;4.30;1.65;;;;;;;16.26;64.54;101501.16;4947012;28;20037;-67
2022/07/15 03:29:45;;;;;;;4.63;1.55;;;;;;;16.22;64.28;101502.44;4947367;28;20076;-67
2022/07/15 03:32:11;;;;;;;4.65;1.80;;;;;;;16.18;64.37;101507.25;4952146;28;20038;-67
2022/07/15 03:34:37;;;;;;;5.35;1.70;;;;;;;16.13;64.55;101507.72;4940730;28;20086;-66
2022/07/15 03:37:02;;;;;;;3.92;1.60;;;;;;;16.14;64.74;101509.41;4967038;28;20293;-66
2022/07/15 03:39:28;;;;;;;5.93;1.73;;;;;;;16.05;64.63;101513.00;4950081;28;20016;-65
2022/07/15 03:41:53;;;;;;;3.58;1.73;;;;;;;16.06;64.76;101512.00;4987276;28;20010;-68
2022/07/15 03:44:19;;;;;;;6.82;1.70;;;;;;;16.05;64.68;101521.00;4962222;28;20052;-67
2022/07/15 03:46:47;;;;;;;4.05;1.67;;;;;;;15.96;65.09;101519.25;4980633;28;20200;-68
2022/07/15 03:49:13;;;;;;;3.55;1.65;;;;;;;16.02;64.96;101520.47;4957219;28;20430;-67
2022/07/15 03:51:38;;;;;;;4.38;1.75;;;;;;;16.03;64.88;101516.81;4948748;28;20018;-66
2022/07/15 03:54:04;;;;;;;5.25;1.67;;;;;;;16.04;65.06;101523.81;4964076;28;20143;-67
2022/07/15 03:56:30;;;;;;;4.20;1.60;;;;;;;16.05;64.96;101525.53;4952240;28;20049;-67
2022/07/15 03:58:56;;;;;;;4.22;1.75;;;;;;;16.12;65.21;101538.09;4946372;28;20099;-67
2022/07/15 04:01:21;;;;;;;5.30;1.60;;;;;;;16.02;65.11;101525.78;4945544;28;20937;-66
2022/07/15 04:03:48;;;;;;;10.00;1.80;;;;;;;16.00;65.17;101538.47;4943840;28;20022;-66
2022/07/15 04:06:14;;;;;;;4.53;1.98;;;;;;;16.02;65.07;101537.34;4950905;28;20029;-66
2022/07/15 04:08:40;;;;;;;6.78;1.83;;;;;;;16.09;65.61;101540.22;4972388;28;20067;-66
2022/07/15 04:11:05;;;;;;;6.53;2.08;;;;;;;16.08;65.36;101541.22;4949263;28;20045;-65
2022/07/15 04:13:31;;;;;;;5.93;2.03;;;;;;;16.10;65.13;101544.56;4972383;28;20041;-65
2022/07/15 04:15:56;;;;;;;3.28;1.80;;;;;;;16.11;65.27;101543.56;4959654;28;20030;-67
2022/07/15 04:18:21;;;;;;;7.88;2.25;;;;;;;16.17;65.04;101550.13;4952336;28;21125;-65
2022/07/15 04:20:48;;;;;;;4.47;1.55;;;;;;;16.25;64.41;101552.88;4984724;28;20036;-66
2022/07/15 04:23:14;;;;;;;4.72;1.45;;;;;;;16.31;64.94;101552.25;4967023;28;20960;-66
2022/07/15 04:25:40;;;;;;;5.22;1.70;;;;;;;16.34;64.41;101551.09;4977420;28;20022;-65
2022/07/15 04:28:05;;;;;;;5.63;2.03;;;;;;;16.33;64.25;101550.28;4966644;28;20115;-66
2022/07/15 04:30:30;;;;;;;5.97;1.90;;;;;;;16.31;64.67;101557.59;4952248;28;20399;-67
2022/07/15 04:32:56;;;;;;;4.50;1.63;;;;;;;16.39;64.35;101560.34;4975012;28;20024;-67
2022/07/15 04:35:21;;;;;;;4.15;1.70;;;;;;;16.35;64.37;101558.97;4978423;28;20958;-66
2022/07/15 04:37:47;;;;;;;3.78;1.90;;;;;;;16.42;64.24;101565.34;4951783;28;20475;-66
2022/07/15 04:40:12;;;;;;;7.95;2.13;;;;;;;16.47;65.34;101568.41;4981778;28;20338;-65
2022/07/15 04:42:37;;;;;;;6.60;1.80;;;;;;;16.47;64.41;101568.41;4966506;28;20029;-65
2022/07/15 04:45:03;;;;;;;8.45;2.03;;;;;;;16.46;64.10;101569.41;4956443;28;20052;-65
2022/07/15 04:47:29;;;;;;;7.25;1.88;;;;;;;16.44;64.29;101574.06;4995653;28;20021;-64
2022/07/15 04:52:44;;;;;;;;;;;;;;;16.45;64.74;101581.06;4947578;28;20099;-65
2022/07/15 04:55:10;;;;;;;5.88;1.70;;;;;;;16.49;64.67;101581.63;4955712;28;19908;-66
2022/07/15 04:57:35;;;;;;;6.75;2.45;;;;;;;16.60;64.60;101578.69;4949530;28;20024;-65
2022/07/15 05:00:01;;;;;;;7.97;2.10;;;;;;;16.71;64.59;101574.94;4985961;28;20033;-65
2022/07/15 05:02:26;;;;;;;4.30;1.63;;;;;;;16.75;63.92;101586.13;4967741;28;20061;-66
2022/07/15 05:04:51;;;;;;;5.03;2.00;;;;;;;16.83;64.28;101581.66;4989726;28;20142;-65
2022/07/15 05:07:17;;;;;;;4.13;1.95;;;;;;;16.76;63.73;101572.59;5005977;28;20335;-65
2022/07/15 05:09:42;;;;;;;4.93;2.08;;;;;;;16.88;64.00;101580.38;4968415;28;20421;-65
2022/07/15 05:12:08;;;;;;;4.47;1.75;;;;;;;16.92;63.34;101571.94;4970041;28;20091;-64
2022/07/15 05:14:33;;;;;;;6.20;2.00;;;;;;;16.78;63.27;101577.78;4980785;28;20347;-65
2022/07/15 05:17:00;;;;;;;4.03;1.88;;;;;;;16.85;63.40;101580.69;4964116;28;20522;-64
2022/07/15 05:19:25;;;;;;;5.10;1.90;;;;;;;16.91;62.73;101574.75;4980667;28;20450;-65
2022/07/15 05:21:51;;;;;;;3.75;1.50;;;;;;;16.94;63.18;101579.78;4973077;28;20018;-65
2022/07/15 05:24:16;;;;;;;5.05;1.80;;;;;;;16.93;63.67;101583.44;4960023;28;20334;-65
2022/07/15 05:26:41;;;;;;;5.88;1.83;;;;;;;16.92;63.60;101587.09;4966533;28;20466;-66
2022/07/15 05:29:07;;;;;;;3.50;1.55;;;;;;;16.97;62.77;101584.81;4966183;28;20714;-65
2022/07/15 05:31:32;;;;;;;8.32;1.83;;;;;;;16.96;62.51;101588.47;4950579;28;20006;-66
2022/07/15 05:33:58;;;;;;;5.47;1.65;;;;;;;16.92;62.42;101589.78;4982967;28;20025;-66
2022/07/15 05:36:23;;;;;;;5.18;1.90;;;;;;;16.95;62.43;101586.78;4951096;28;20975;-65
2022/07/15 05:38:49;;;;;;;3.15;1.45;;;;;;;17.00;62.16;101587.16;4964587;28;20104;-65
2022/07/15 05:41:14;;;;;;;5.55;1.85;;;;;;;16.99;62.10;101585.47;4987994;28;20465;-65
2022/07/15 05:43:39;;;;;;;5.18;1.88;;;;;;;16.99;62.18;101583.66;4960516;28;20030;-66
2022/07/15 05:46:05;;;;;;;5.03;1.60;;;;;;;17.08;62.25;101589.88;4946688;28;20313;-65
2022/07/15 05:48:30;;;;;;;9.13;1.77;;;;;;;17.06;62.23;101588.34;4925786;28;20121;-65
2022/07/15 05:50:56;;;;;;;5.72;1.95;;;;;;;17.07;62.42;101585.53;4946680;28;20212;-66
2022/07/15 05:53:22;;;;;;;5.35;1.75;;;;;;;17.14;62.17;101586.56;4912051;28;20081;-63
2022/07/15 05:55:47;;;;;;;6.40;1.80;;;;;;;17.21;62.46;101591.28;4943133;28;20850;-65
2022/07/15 05:58:13;;;;;;;5.53;1.80;;;;;;;17.23;62.75;101597.31;4943460;28;20303;-65
2022/07/15 06:00:38;;;;;;;5.55;1.85;;;;;;;17.18;62.49;101595.13;4942019;28;20505;-65
2022/07/15 06:03:04;;;;;;;4.40;1.73;;;;;;;17.18;62.14;101592.44;4943933;28;20023;-64
2022/07/15 06:05:30;;;;;;;4.45;1.48;;;;;;;17.01;62.72;101586.16;4924221;28;20007;-65
2022/07/15 06:07:55;;;;;;;2.97;1.52;;;;;;;17.12;62.57;101596.59;4946596;28;21132;-65
2022/07/15 06:10:20;;;;;;;5.05;1.75;;;;;;;17.15;62.05;101590.91;4944902;28;20053;-65
2022/07/15 06:12:46;;;;;;;3.92;1.42;;;;;;;17.04;62.28;101591.19;4962054;28;20291;-65
2022/07/15 06:15:11;;;;;;;5.63;1.70;;;;;;;17.07;62.52;101598.06;4926723;28;20030;-66
2022/07/15 06:17:37;;;;;;;5.53;1.50;;;;;;;17.05;61.52;101595.56;4946991;28;20437;-65
2022/07/15 06:20:03;;;;;;;7.88;2.10;;;;;;;17.03;61.34;101594.84;4934410;28;20076;-64
2022/07/15 06:22:29;;;;;;;4.90;1.90;;;;;;;17.11;61.23;101599.44;4936623;28;20022;-66
2022/07/15 06:24:54;;;;;;;5.30;1.70;;;;;;;17.04;61.14;101601.06;4963532;28;20022;-65
2022/07/15 06:27:21;;;;;;;2.67;1.20;;;;;;;17.01;61.26;101601.38;4961461;28;20018;-65
2022/07/15 06:29:49;;;;;;;5.85;1.30;;;;;;;17.08;61.27;101603.25;4928130;28;21029;-65
2022/07/15 06:32:15;;;;;;;3.85;1.40;;;;;;;17.05;61.52;101602.72;4930419;28;20021;-65
2022/07/15 06:34:41;;;;;;;3.72;1.35;;;;;;;17.10;60.98;101598.56;4923043;28;20034;-65
2022/07/15 06:37:06;;;;;;;5.78;2.00;;;;;;;17.21;60.41;101592.13;4945545;28;20405;-65
2022/07/15 06:39:32;;;;;;;5.80;1.50;;;;;;;17.22;60.83;101593.81;4929252;28;20014;-62
2022/07/15 06:41:57;;;;;;;4.82;1.80;;;;;;;17.25;59.88;101592.66;4946547;28;20013;-65
2022/07/15 06:44:22;;;;;;;5.22;2.20;;;;;;;17.22;59.23;101601.84;4928197;28;20023;-63
2022/07/15 06:46:48;;;;;;;4.10;2.30;;;;;;;17.17;58.38;101607.66;4946046;28;20125;-65
2022/07/15 06:49:13;;;;;;;6.75;1.95;;;;;;;17.11;58.56;101599.44;4938050;28;20015;-65
2022/07/15 06:51:39;;;;;;;2.15;1.50;;;;;;;17.15;58.94;101590.09;4951550;28;20026;-66
2022/07/15 06:54:04;;;;;;;3.58;1.67;;;;;;;17.34;58.64;101602.38;4960176;28;20030;-64
2022/07/15 06:56:30;;;;;;;4.60;1.50;;;;;;;17.42;57.62;101591.72;4940902;28;20030;-66
2022/07/15 06:58:55;;;;;;;3.97;1.63;;;;;;;17.45;57.32;101599.41;4930217;28;20018;-64
2022/07/15 07:01:20;;;;;;;2.80;1.60;;;;;;;17.57;58.36;101601.78;4959186;28;20010;-65
2022/07/15 07:03:46;;;;;;;3.42;2.10;;;;;;;17.69;57.99;101604.00;4947379;28;20877;-66
2022/07/15 07:06:11;;;;;;;3.72;1.50;;;;;;;17.74;57.28;101602.69;4945077;28;20336;-65
2022/07/15 07:08:37;;;;;;;3.75;1.80;;;;;;;17.68;57.16;101601.50;4947842;28;20508;-66
2022/07/15 07:11:02;;;;;;;3.63;1.60;;;;;;;17.56;57.03;101606.31;4925371;28;20064;-66
2022/07/15 07:13:28;;;;;;;4.03;1.50;;;;;;;17.58;56.72;101608.84;4965322;28;20946;-66
2022/07/15 07:15:53;;;;;;;3.30;1.20;;;;;;;17.60;57.08;101612.19;4941994;28;20169;-66
2022/07/15 07:18:19;;;;;;;5.68;1.40;;;;;;;17.55;56.05;101609.16;4967028;28;20439;-66
2022/07/15 07:20:44;;;;;;;2.50;1.10;;;;;;;17.53;56.38;101612.00;4950288;28;20122;-65
2022/07/15 07:23:10;;;;;;;3.25;1.40;;;;;;;17.54;56.59;101607.47;4938314;28;20319;-65
2022/07/15 07:25:35;;;;;;;4.65;1.30;;;;;;;17.53;56.72;101612.00;4918647;28;20116;-63
2022/07/15 07:28:03;;;;;;;4.20;1.23;;;;;;;17.62;56.65;101608.34;4946663;28;20145;-65
2022/07/15 07:30:29;;;;;;;2.22;1.20;;;;;;;17.61;56.00;101613.84;4962101;28;20395;-65
2022/07/15 07:32:55;;;;;;;2.53;1.20;;;;;;;17.61;55.83;101611.19;4944654;28;20049;-63
2022/07/15 07:35:20;;;;;;;3.00;1.08;;;;;;;17.41;55.63;101614.09;4944954;28;20026;-65
2022/07/15 07:37:45;;;;;;;2.55;1.20;;;;;;;17.56;55.43;101610.84;4944910;28;20022;-63
2022/07/15 07:40:11;;;;;;;3.17;1.45;;;;;;;17.61;55.13;101611.19;4965363;28;20541;-65
2022/07/15 07:42:38;;;;;;;4.72;1.27;;;;;;;17.78;53.81;101609.38;4972672;28;20182;-64
2022/07/15 07:45:04;;;;;;;1.67;0.90;;;;;;;17.64;53.39;101606.34;4965439;28;20018;-65
2022/07/15 07:47:29;;;;;;;3.40;1.17;;;;;;;17.84;52.96;101601.56;4985372;28;20486;-65
2022/07/15 07:49:54;;;;;;;2.25;1.23;;;;;;;17.89;52.82;101606.41;4978658;28;20015;-63
2022/07/15 07:52:20;;;;;;;2.05;0.98;;;;;;;17.99;52.46;101601.78;4975194;28;20421;-65
2022/07/15 07:54:46;;;;;;;5.53;1.00;;;;;;;18.21;52.91;101614.72;4931753;28;20019;-62
2022/07/15 07:57:11;;;;;;;3.10;1.20;;;;;;;18.39;51.50;101609.19;4962894;28;20263;-65
2022/07/15 07:59:37;;;;;;;1.80;0.98;;;;;;;18.41;50.31;101610.69;4951350;28;20527;-64
2022/07/15 08:02:03;;;;;;;3.38;1.08;;;;;;;18.46;50.89;101618.25;4961343;28;20451;-65
2022/07/15 08:04:30;;;;;;;2.13;0.85;;;;;;;18.55;48.45;101609.19;4965139;28;20887;-65
2022/07/15 08:06:56;;;;;;;1.73;1.13;;;;;;;18.63;47.75;101601.13;4950764;28;20036;-63
2022/07/15 08:09:21;;;;;;;0.98;0.80;;;;;;;18.90;48.14;101617.06;4965385;28;20490;-65
2022/07/15 08:11:47;;;;;;;4.75;0.90;;;;;;;18.98;46.69;101608.97;4951318;28;20475;-65
2022/07/15 08:14:12;;;;;;;3.50;0.98;;;;;;;19.08;47.36;101598.91;4963597;28;20049;-66
2022/07/15 08:16:42;;;;;;;1.48;0.75;;;;;;;19.17;49.36;101611.28;4974459;28;20037;-66
2022/07/15 08:19:07;;;;;;;0.77;0.77;;;;;;;19.29;46.89;101608.22;4974593;28;20787;-66
2022/07/15 08:21:33;;;;;;;3.53;0.75;;;;;;;19.17;45.15;101613.13;4958362;28;20017;-64
2022/07/15 08:23:58;;;;;;;1.45;1.00;;;;;;;19.19;45.35;101606.59;4968095;28;20030;-66
2022/07/15 08:26:24;;;;;;;2.90;1.10;;;;;;;19.42;45.73;101603.16;4947248;28;20474;-62
2022/07/15 08:28:50;;;;;;;4.50;0.93;;;;;;;19.66;44.53;101606.75;4967582;28;20865;-65
2022/07/15 08:31:16;;;;;;;1.83;0.90;;;;;;;19.73;44.31;101610.41;4972507;28;20047;-65
2022/07/15 08:33:41;;;;;;;1.50;0.80;;;;;;;19.84;44.15;101618.09;4964631;28;20363;-66
2022/07/15 08:36:07;;;;;;;3.95;0.88;;;;;;;19.82;43.69;101603.97;4968267;28;20929;-65
2022/07/15 08:38:32;;;;;;;0.80;0.70;;;;;;;19.84;44.25;101610.03;4947706;28;20006;-65
2022/07/15 08:40:58;;;;;;;1.65;1.00;;;;;;;19.94;44.25;101606.25;4951615;28;20398;-65
2022/07/15 08:43:23;;;;;;;0.93;0.82;;;;;;;19.96;43.34;101610.44;4933188;28;20219;-66
2022/07/15 08:45:48;;;;;;;3.05;1.05;;;;;;;20.00;44.20;101610.94;4984305;28;20014;-65
2022/07/15 08:48:14;;;;;;;2.50;0.88;;;;;;;20.25;44.73;101603.53;4981217;28;20038;-63
2022/07/15 08:50:40;;;;;;;1.23;0.93;;;;;;;20.51;42.45;101603.13;4949709;28;20444;-65
2022/07/15 08:53:05;;;;;;;2.33;1.30;;;;;;;20.80;42.11;101611.47;4966426;28;20049;-64
2022/07/15 08:55:31;;;;;;;2.55;1.00;;;;;;;20.82;41.92;101612.97;4984224;28;20567;-66
2022/07/15 08:57:57;;;;;;;2.72;1.02;;;;;;;20.91;43.83;101619.09;4935902;28;20010;-66
2022/07/15 09:00:28;;;;;;;1.45;0.77;;;;;;;21.02;45.49;101615.94;4928531;28;20475;-66
2022/07/15 09:03:00;;;;;;;1.45;0.75;;;;;;;21.24;44.73;101624.97;4930943;28;20080;-64
2022/07/15 09:05:28;;;;;;;1.73;1.13;;;;;;;21.26;41.92;101620.25;4967048;28;20281;-65
2022/07/15 09:08:05;;;;;;;1.38;1.20;;;;;;;21.43;42.15;101618.19;4950385;28;20452;-66
2022/07/15 09:10:44;;;;;;;2.70;1.10;;;;;;;21.42;43.70;101616.50;4951211;28;20010;-65
2022/07/15 09:13:21;;;;;;;2.42;0.90;;;;;;;21.30;43.16;101614.50;4965443;28;20030;-66
2022/07/15 09:15:46;;;;;;;1.70;1.60;;;;;;;21.52;43.54;101618.09;4968136;28;20455;-65
2022/07/15 09:18:20;;;;;;;3.42;1.52;;;;;;;21.32;42.19;101609.75;4966171;28;20029;-64
2022/07/15 09:20:46;;;;;;;2.35;1.35;;;;;;;21.50;41.27;101615.56;4980611;28;20022;-65
2022/07/15 09:23:17;;;;;;;3.17;1.90;;;;;;;21.39;41.34;101616.03;4969977;28;20330;-65
2022/07/15 09:25:43;;;;;;;2.92;1.35;;;;;;;21.48;41.06;101622.19;4949899;28;20146;-65
2022/07/15 09:28:08;;;;;;;1.48;1.27;;;;;;;21.56;41.85;101611.31;4950755;28;20811;-66
2022/07/15 09:36:14;;;;;;;3.05;1.27;;;;;;;21.87;42.35;101613.78;4954128;28;20026;-65
2022/07/15 09:38:46;;;;;;;3.00;1.10;;;;;;;21.53;43.19;101617.09;4984503;28;20758;-66
2022/07/15 09:41:31;;;;;;;2.22;1.17;;;;;;;21.34;42.92;101618.47;4966783;28;20029;-66
2022/07/15 09:44:05;;;;;;;2.60;1.40;;;;;;;21.08;42.67;101622.44;4948892;28;20006;-66
2022/07/15 09:46:44;;;;;;;1.80;1.27;;;;;;;20.88;43.93;101614.94;4947957;28;20377;-66
2022/07/15 09:49:34;;;;;;;2.13;1.10;;;;;;;20.76;42.96;101624.47;4961943;28;20392;-64
2022/07/15 09:52:01;;;;;;;4.05;1.25;;;;;;;21.26;44.18;101614.00;4947382;28;20022;-65
2022/07/15 09:54:32;;;;;;;3.20;1.25;;;;;;;21.93;44.28;101614.88;4945782;28;20034;-64
2022/07/15 09:56:58;;;;;;;1.83;1.20;;;;;;;22.57;38.54;101627.50;4950582;28;20251;-65
2022/07/15 09:59:23;;;;;;;1.92;1.30;;;;;;;22.64;38.41;101624.88;4944010;28;20014;-65
2022/07/15 10:01:49;;;;;;;1.88;1.48;;;;;;;22.98;37.48;101616.00;4962769;28;20412;-66
2022/07/15 10:04:19;;;;;;;3.03;1.50;;;;;;;23.11;35.59;101619.78;4954728;28;20010;-65
2022/07/15 10:06:44;;;;;;;1.98;1.60;;;;;;;23.40;39.33;101618.72;4965858;28;20013;-65
2022/07/15 10:09:10;;;;;;;4.53;1.70;;;;;;;23.77;38.76;101619.28;4947879;28;20010;-66
2022/07/15 10:11:38;;;;;;;3.15;1.70;;;;;;;24.23;38.50;101609.63;4935424;28;20918;-65
2022/07/15 10:14:25;;;;;;;2.88;1.80;;;;;;;24.29;38.39;101599.88;4952834;28;20464;-65
2022/07/15 10:16:53;;;;;;;2.40;1.60;;;;;;;24.53;38.20;101596.50;4960570;28;20113;-66
2022/07/15 10:19:49;;;;;;;1.70;1.60;;;;;;;25.23;37.02;101600.59;4976078;28;20066;-66
2022/07/15 10:22:32;;;;;;;1.70;1.20;;;;;;;25.48;35.06;101597.19;4969326;28;20022;-66
2022/07/15 10:25:39;;;;;;;1.20;1.10;;;;;;;25.81;34.06;101593.47;4945889;28;20034;-64
2022/07/15 10:28:09;;;;;;;3.75;1.40;;;;;;;26.45;33.20;101586.13;4893823;28;20556;-67
2022/07/15 10:30:35;;;;;;;2.72;1.40;;;;;;;26.68;32.47;101590.94;4939412;28;20128;-66
2022/07/15 10:33:03;;;;;;;1.98;1.40;;;;;;;26.28;32.01;101585.03;4967677;28;20807;-66
2022/07/15 10:35:39;;;;;;;2.35;1.33;;;;;;;26.58;31.19;101587.88;4985840;28;20022;-66
2022/07/15 10:38:24;;;;;;;1.75;1.58;;;;;;;25.04;33.35;101583.34;4950547;28;20476;-66
2022/07/15 10:41:11;;;;;;;2.83;1.60;;;;;;;24.87;33.93;101580.28;4964717;28;20009;-66
2022/07/15 10:43:41;;;;;;;7.20;2.00;;;;;;;25.58;34.17;101580.47;4953181;28;20957;-66
2022/07/15 10:46:16;;;;;;;3.40;1.80;;;;;;;25.48;33.88;101580.91;4962306;28;20017;-66
2022/07/15 10:48:47;;;;;;;4.18;1.90;;;;;;;24.94;34.03;101575.66;4982461;28;20445;-66
2022/07/15 10:51:33;;;;;;;3.33;1.80;;;;;;;24.46;34.34;101578.63;4989719;28;20032;-66
2022/07/15 10:53:59;;;;;;;3.53;1.70;;;;;;;25.14;33.99;101585.63;4980306;28;20337;-66
2022/07/15 10:56:35;;;;;;;2.90;1.70;;;;;;;24.85;34.96;101588.59;4971855;28;20056;-66
2022/07/15 10:59:07;;;;;;;3.92;2.45;;;;;;;24.53;34.58;101590.28;4967798;28;20010;-66
2022/07/15 11:01:32;;;;;;;8.63;4.70;;;;;;;24.28;34.35;101580.09;4982615;28;20002;-66
2022/07/15 11:04:17;;;;;;;3.67;1.95;;;;;;;23.80;35.36;101582.91;4987961;28;20362;-66
2022/07/15 11:07:01;;;;;;;2.28;1.40;;;;;;;23.89;35.02;101581.72;4959134;28;20021;-66
2022/07/15 11:09:45;;;;;;;;;;;;;;;25.06;35.34;101575.00;4946945;28;20033;-64
2022/07/15 11:12:11;;;;;;;3.80;1.37;;;;;;;26.05;32.51;101576.44;4975201;28;20840;-67
2022/07/15 11:14:55;;;;;;;2.45;1.35;;;;;;;25.99;34.62;101573.72;4967639;28;20032;-66
2022/07/15 11:17:37;;;;;;;1.85;1.38;;;;;;;25.57;31.92;101574.22;4987125;28;20411;-65
2022/07/15 11:20:11;;;;;;;2.72;1.30;;;;;;;25.24;33.31;101567.06;4967252;28;20025;-65
2022/07/15 11:22:48;;;;;;;2.28;1.50;;;;;;;25.92;32.90;101553.97;4959263;28;20087;-66
2022/07/15 11:25:39;;;;;;;2.67;1.85;;;;;;;25.58;33.51;101562.34;4950607;28;20191;-65
2022/07/15 11:28:13;;;;;;;1.00;0.90;;;;;;;25.30;34.91;101555.34;4964924;28;20273;-66
2022/07/15 11:30:53;;;;;;;3.53;1.70;;;;;;;25.40;34.67;101549.50;4987766;28;20024;-66
2022/07/15 11:33:20;;;;;;;1.58;1.40;;;;;;;26.02;32.01;101541.63;4949751;28;20022;-65
2022/07/15 11:35:48;;;;;;;2.30;1.75;;;;;;;26.47;32.98;101539.75;4949470;28;20159;-67